Time;durP1;ratioP1;P1;durP2;ratioP2;P2;SDS_P1;SDS_P2;PMS_P1;PMS_P2;Temp;Humidity;BMP_temperature;BMP_pressure;BME280_temperature;BME280_humidity;BME280_pressure;Samples;Min_cycle;Max_cycle;Signal;HPM_P1;HPM_P2
2021/10/31 00:01:15;;;;;;;36.35;27.13;;;;;;;7.82;69.12;100617.46;1764132;80;22320;-37
2021/10/31 00:03:42;;;;;;;33.33;23.65;;;;;;;7.70;69.31;100611.27;1748191;80;21495;-37
2021/10/31 00:06:09;;;;;;;36.68;25.17;;;;;;;7.70;69.21;100608.58;1758071;80;21539;-36
2021/10/31 00:08:37;;;;;;;40.80;25.60;;;;;;;7.69;69.04;100607.56;1759043;80;21495;-37
2021/10/31 00:11:03;;;;;;;44.88;26.00;;;;;;;7.61;68.83;100612.33;1761253;80;21622;-37
2021/10/31 00:13:30;;;;;;;39.80;25.17;;;;;;;7.51;68.88;100609.89;1751886;80;21150;-37
2021/10/31 00:15:57;;;;;;;34.73;25.68;;;;;;;7.43;68.76;100610.09;1766103;80;21037;-36
2021/10/31 00:18:24;;;;;;;36.23;26.52;;;;;;;7.31;68.64;100609.28;1747682;80;21511;-37
2021/10/31 00:20:51;;;;;;;34.63;26.27;;;;;;;7.23;68.64;100610.03;1760336;80;21069;-36
2021/10/31 00:23:17;;;;;;;29.87;24.47;;;;;;;7.19;68.69;100603.66;1766001;80;20974;-37
2021/10/31 00:25:44;;;;;;;34.63;25.62;;;;;;;7.22;68.57;100603.04;1749902;80;21085;-37
2021/10/31 00:28:10;;;;;;;40.83;27.85;;;;;;;7.22;68.45;100603.04;1768479;80;21594;-36
2021/10/31 00:30:37;;;;;;;35.05;25.90;;;;;;;7.21;68.31;100598.73;1768736;80;21007;-37
2021/10/31 00:33:03;;;;;;;36.95;26.48;;;;;;;7.18;68.18;100593.97;1756276;80;21049;-36
2021/10/31 00:35:31;;;;;;;47.65;27.85;;;;;;;7.13;68.04;100595.44;1743597;80;21048;-37
2021/10/31 00:37:57;;;;;;;39.78;27.60;;;;;;;7.08;68.06;100594.76;1756390;80;21206;-36
2021/10/31 00:40:24;;;;;;;36.65;26.23;;;;;;;7.02;67.99;100596.77;1759654;80;21504;-37
2021/10/31 00:42:51;;;;;;;34.55;24.57;;;;;;;7.01;67.87;100599.25;1772528;80;20953;-36
2021/10/31 00:45:17;;;;;;;31.23;24.07;;;;;;;7.05;67.80;100596.73;1765414;80;20978;-36
2021/10/31 00:47:44;;;;;;;33.50;26.23;;;;;;;7.07;67.69;100591.27;1748874;80;21520;-36
2021/10/31 00:50:11;;;;;;;33.42;25.62;;;;;;;7.05;67.48;100587.29;1696373;84;21121;-36
2021/10/31 00:52:41;;;;;;;39.88;27.10;;;;;;;7.02;67.19;100592.73;1701231;83;21006;-37
2021/10/31 00:55:08;;;;;;;36.05;26.20;;;;;;;6.96;67.03;100592.63;1709358;83;21503;-36
2021/10/31 00:57:36;;;;;;;35.23;26.02;;;;;;;6.90;66.89;100596.53;1725098;82;21519;-36
2021/10/31 01:00:09;;;;;;;35.88;27.10;;;;;;;6.82;66.89;100589.98;1727561;82;21531;-36
2021/10/31 01:02:37;;;;;;;37.00;27.15;;;;;;;6.74;66.75;100585.84;1747230;80;21105;-36
2021/10/31 01:05:06;;;;;;;34.63;24.85;;;;;;;6.66;66.76;100586.02;1746899;80;20974;-36
2021/10/31 01:08:00;;;;;;;30.97;23.65;;;;;;;6.64;66.67;100583.36;1767963;80;20942;-36
2021/10/31 01:11:02;;;;;;;32.53;24.57;;;;;;;6.64;66.52;100584.71;1746265;80;21028;-36
2021/10/31 01:14:06;;;;;;;33.40;24.87;;;;;;;6.61;66.47;100586.67;1745085;80;21128;-36
2021/10/31 01:17:02;;;;;;;34.45;25.82;;;;;;;6.52;66.37;100579.31;1758511;80;21817;-37
2021/10/31 01:20:05;;;;;;;36.20;24.75;;;;;;;6.47;66.39;100575.39;1758659;80;20962;-36
2021/10/31 01:23:01;;;;;;;34.23;24.37;;;;;;;6.41;66.34;100573.09;1766082;80;20993;-36
2021/10/31 01:25:45;;;;;;;33.88;25.17;;;;;;;6.34;66.41;100572.14;1743397;82;20981;-36
2021/10/31 01:28:30;;;;;;;34.45;25.40;;;;;;;6.27;66.56;100572.31;1757111;80;21037;-36
2021/10/31 01:31:14;;;;;;;33.70;25.08;;;;;;;6.20;66.60;100565.17;1773046;80;21357;-36
2021/10/31 01:34:05;;;;;;;39.60;25.35;;;;;;;6.20;66.60;100567.87;1765179;80;21017;-36
2021/10/31 01:36:44;;;;;;;34.20;25.17;;;;;;;6.19;66.59;100567.09;1743380;82;20977;-37
2021/10/31 01:39:34;;;;;;;33.73;24.15;;;;;;;6.17;66.64;100563.89;1765908;80;21056;-36
2021/10/31 01:42:09;;;;;;;36.95;25.97;;;;;;;6.16;66.61;100554.77;1773452;80;26493;-36
2021/10/31 01:45:06;;;;;;;40.20;26.42;;;;;;;6.12;66.58;100555.92;1770507;80;21143;-36
2021/10/31 01:47:59;;;;;;;37.93;26.10;;;;;;;6.06;66.62;100547.14;1723946;82;21599;-36
2021/10/31 01:50:45;;;;;;;36.03;26.27;;;;;;;5.99;66.58;100544.62;1770985;80;21280;-36
2021/10/31 01:53:44;;;;;;;38.05;26.93;;;;;;;5.93;66.69;100547.16;1776163;80;20976;-36
2021/10/31 01:56:13;;;;;;;35.75;25.05;;;;;;;5.87;66.93;100546.45;1766483;80;21074;-36
2021/10/31 01:58:56;;;;;;;35.68;23.90;;;;;;;5.86;67.19;100541.33;1766981;80;21008;-36
2021/10/31 02:01:24;;;;;;;36.63;25.80;;;;;;;5.89;67.14;100546.16;1769677;80;20985;-36
2021/10/31 02:03:52;;;;;;;33.88;25.48;;;;;;;5.88;67.19;100539.18;1751425;80;21093;-37
2021/10/31 02:06:18;;;;;;;36.45;26.70;;;;;;;5.87;67.21;100542.96;1756002;80;21016;-36
2021/10/31 02:08:45;;;;;;;38.00;27.17;;;;;;;5.88;67.22;100540.52;1761071;80;21519;-36
2021/10/31 02:11:12;;;;;;;40.65;27.60;;;;;;;5.87;67.14;100542.96;1760116;80;21109;-36
2021/10/31 02:13:40;;;;;;;40.83;27.30;;;;;;;5.85;67.19;100537.06;1752973;80;21051;-36
2021/10/31 02:16:07;;;;;;;35.92;25.68;;;;;;;5.83;67.22;100536.55;1753087;80;21032;-37
2021/10/31 02:18:33;;;;;;;36.08;24.98;;;;;;;5.77;67.25;100528.33;1764456;80;20989;-36
2021/10/31 02:21:00;;;;;;;34.48;25.52;;;;;;;5.76;67.18;100526.75;1776049;80;21031;-37
2021/10/31 02:23:28;;;;;;;35.10;24.20;;;;;;;5.79;67.19;100527.49;1751404;80;21143;-36
2021/10/31 02:25:56;;;;;;;36.20;25.20;;;;;;;5.80;67.32;100528.55;1760607;80;21020;-36
2021/10/31 02:28:22;;;;;;;36.13;25.37;;;;;;;5.78;67.46;100523.20;1760220;80;21068;-36
2021/10/31 02:30:50;;;;;;;37.83;25.50;;;;;;;5.74;67.58;100519.52;1773790;80;21313;-36
2021/10/31 02:33:17;;;;;;;34.78;25.32;;;;;;;5.75;67.59;100523.80;1779985;80;21518;-36
2021/10/31 02:35:43;;;;;;;38.58;26.05;;;;;;;5.77;67.52;100524.28;1780828;80;21582;-36
2021/10/31 02:38:10;;;;;;;37.78;25.30;;;;;;;5.75;67.44;100523.27;1778764;80;21029;-36
2021/10/31 02:40:36;;;;;;;37.60;25.15;;;;;;;5.74;67.43;100524.89;1782451;80;21036;-36
2021/10/31 02:43:04;;;;;;;36.48;25.00;;;;;;;5.76;67.32;100525.41;1762739;80;21031;-36
2021/10/31 02:45:31;;;;;;;37.10;26.07;;;;;;;5.79;67.30;100524.80;1754492;80;21548;-37
2021/10/31 02:48:04;;;;;;;33.00;24.55;;;;;;;5.82;67.32;100522.84;1777634;80;21096;-36
2021/10/31 02:50:41;;;;;;;35.03;25.30;;;;;;;5.79;67.44;100528.84;1750983;81;21027;-37
2021/10/31 02:53:25;;;;;;;39.60;25.32;;;;;;;5.75;67.44;100531.87;1754232;80;21040;-37
2021/10/31 02:56:06;;;;;;;40.23;26.60;;;;;;;5.71;67.36;100530.89;1753028;80;21770;-36
2021/10/31 02:58:56;;;;;;;39.15;25.10;;;;;;;5.65;67.37;100530.18;1775460;80;21024;-36
2021/10/31 03:01:23;;;;;;;34.40;26.23;;;;;;;5.57;67.45;100534.34;1761101;80;21869;-37
2021/10/31 03:03:53;;;;;;;38.40;25.80;;;;;;;5.49;67.59;100525.63;1753511;80;22206;-36
2021/10/31 03:06:20;;;;;;;34.83;23.52;;;;;;;5.50;67.51;100529.11;1751012;81;20933;-36
2021/10/31 03:08:47;;;;;;;34.25;24.15;;;;;;;5.53;67.53;100522.59;1762393;80;21029;-36
2021/10/31 03:11:14;;;;;;;35.88;24.90;;;;;;;5.56;67.42;100519.86;1781947;80;21067;-36
2021/10/31 03:13:41;;;;;;;31.90;24.00;;;;;;;5.56;67.47;100522.01;1782110;80;21745;-36
2021/10/31 03:16:09;;;;;;;33.65;23.90;;;;;;;5.56;67.47;100520.66;1769614;80;21015;-36
2021/10/31 03:18:37;;;;;;;34.83;24.15;;;;;;;5.56;67.49;100519.86;1761700;80;20921;-36
2021/10/31 03:21:05;;;;;;;37.45;24.85;;;;;;;5.55;67.40;100519.61;1779928;80;21028;-36
2021/10/31 03:23:32;;;;;;;36.42;25.17;;;;;;;5.52;67.35;100508.88;1772100;80;21056;-36
2021/10/31 03:25:58;;;;;;;30.90;22.82;;;;;;;5.49;67.27;100511.37;1761850;80;21154;-37
2021/10/31 03:28:25;;;;;;;32.42;22.27;;;;;;;5.48;67.21;100517.30;1758727;80;21083;-37
2021/10/31 03:30:52;;;;;;;32.45;22.45;;;;;;;5.50;67.09;100516.47;1753631;80;21011;-36
2021/10/31 03:33:19;;;;;;;32.10;23.50;;;;;;;5.53;66.98;100516.41;1768229;80;21532;-36
2021/10/31 03:35:45;;;;;;;34.78;24.87;;;;;;;5.50;67.03;100519.16;1781897;80;21515;-36
2021/10/31 03:38:12;;;;;;;34.35;24.50;;;;;;;5.50;67.00;100517.01;1761696;80;21102;-36
2021/10/31 03:40:39;;;;;;;33.73;24.12;;;;;;;5.48;66.93;100519.98;1779998;80;21013;-36
2021/10/31 03:43:06;;;;;;;33.58;23.30;;;;;;;5.42;66.82;100513.09;1768309;80;20989;-36
2021/10/31 03:45:33;;;;;;;41.75;25.85;;;;;;;5.39;66.83;100513.70;1754239;80;20992;-36
2021/10/31 03:48:00;;;;;;;38.33;25.32;;;;;;;5.35;66.73;100511.91;1776602;80;21107;-36
2021/10/31 03:50:27;;;;;;;34.60;24.20;;;;;;;5.27;66.81;100513.39;1770265;80;21181;-36
2021/10/31 03:52:55;;;;;;;32.63;22.17;;;;;;;5.23;66.77;100509.14;1752602;80;20904;-37
2021/10/31 03:55:21;;;;;;;32.00;22.45;;;;;;;5.24;66.75;100501.87;1745692;80;20938;-36
2021/10/31 03:57:48;;;;;;;34.40;24.10;;;;;;;5.24;66.76;100502.67;1751512;80;20985;-36
2021/10/31 04:00:15;;;;;;;35.98;23.73;;;;;;;5.21;66.85;100506.51;1759304;80;21013;-36
2021/10/31 04:02:42;;;;;;;30.95;22.77;;;;;;;5.18;66.84;100503.08;1750205;80;21135;-36
2021/10/31 04:05:11;;;;;;;34.75;24.00;;;;;;;5.14;66.88;100499.36;1771481;80;21503;-36
2021/10/31 04:07:39;;;;;;;36.20;24.47;;;;;;;5.09;66.93;100492.18;1773740;80;21025;-37
2021/10/31 04:10:08;;;;;;;32.90;23.42;;;;;;;5.06;67.01;100489.30;1771868;80;20999;-36
2021/10/31 04:12:35;;;;;;;32.03;22.90;;;;;;;5.02;67.05;100495.02;1771550;80;21068;-36
2021/10/31 04:15:05;;;;;;;36.03;23.18;;;;;;;4.98;67.11;100488.63;1745519;80;20991;-37
2021/10/31 04:17:32;;;;;;;29.12;21.23;;;;;;;4.97;67.08;100493.21;1750683;80;22113;-36
2021/10/31 04:19:59;;;;;;;29.75;21.60;;;;;;;5.02;66.96;100492.33;1763477;80;21013;-36
2021/10/31 04:22:29;;;;;;;31.95;22.50;;;;;;;5.02;67.00;100489.64;1773622;80;21009;-36
2021/10/31 04:24:58;;;;;;;33.73;22.70;;;;;;;5.01;67.02;100488.03;1771011;80;21037;-36
2021/10/31 04:27:24;;;;;;;34.45;24.15;;;;;;;4.99;67.03;100487.52;1759995;80;21138;-36
2021/10/31 04:29:52;;;;;;;35.83;23.18;;;;;;;4.96;67.07;100485.43;1737710;80;20976;-36
2021/10/31 04:32:19;;;;;;;34.67;23.57;;;;;;;4.95;67.06;100478.45;1754681;80;21054;-36
2021/10/31 04:34:46;;;;;;;34.40;23.05;;;;;;;4.93;67.00;100480.66;1754805;80;20964;-36
2021/10/31 04:37:12;;;;;;;36.85;24.20;;;;;;;4.90;67.02;100478.54;1745917;80;21252;-36
2021/10/31 04:39:41;;;;;;;32.50;23.02;;;;;;;4.87;67.01;100478.59;1749454;80;21182;-36
2021/10/31 04:42:10;;;;;;;32.78;22.62;;;;;;;4.88;66.99;100483.42;1744768;80;22122;-37
2021/10/31 04:44:37;;;;;;;32.15;21.95;;;;;;;4.92;66.86;100485.77;1749920;80;22219;-36
2021/10/31 04:47:04;;;;;;;33.02;23.10;;;;;;;4.94;66.80;100478.23;1750447;81;21046;-36
2021/10/31 04:49:31;;;;;;;37.23;24.98;;;;;;;4.92;66.96;100476.37;1767304;80;21533;-36
2021/10/31 04:51:58;;;;;;;39.88;24.37;;;;;;;4.92;66.95;100475.02;1747765;80;21050;-36
2021/10/31 04:54:24;;;;;;;36.25;24.25;;;;;;;4.89;66.99;100476.97;1752852;80;20927;-36
2021/10/31 04:56:51;;;;;;;35.80;23.80;;;;;;;4.86;66.94;100476.19;1766698;80;21000;-36
2021/10/31 04:59:18;;;;;;;38.02;23.90;;;;;;;4.83;66.96;100482.16;1772481;80;21499;-36
2021/10/31 05:01:46;;;;;;;33.55;24.37;;;;;;;4.76;67.01;100482.53;1778256;80;20986;-36
2021/10/31 05:04:14;;;;;;;35.20;22.22;;;;;;;4.72;67.16;100485.02;1760320;80;21070;-36
2021/10/31 05:06:41;;;;;;;33.18;23.02;;;;;;;4.72;67.21;100486.90;1777693;80;20964;-37
2021/10/31 05:09:08;;;;;;;31.50;22.95;;;;;;;4.75;67.26;100479.05;1785954;80;21041;-36
2021/10/31 05:11:34;;;;;;;35.73;23.22;;;;;;;4.77;67.35;100482.25;1787761;80;21002;-36
2021/10/31 05:14:01;;;;;;;32.60;24.37;;;;;;;4.79;67.41;100478.70;1785278;80;21000;-36
2021/10/31 05:16:28;;;;;;;41.28;24.57;;;;;;;4.79;67.44;100486.77;1787420;80;21148;-36
2021/10/31 05:18:56;;;;;;;34.48;24.77;;;;;;;4.79;67.53;100497.51;1786820;80;20972;-36
2021/10/31 05:21:24;;;;;;;33.35;24.23;;;;;;;4.82;67.59;100485.39;1787524;80;21065;-36
2021/10/31 05:23:50;;;;;;;34.88;23.92;;;;;;;4.83;67.62;100491.57;1782441;80;21022;-36
2021/10/31 05:26:17;;;;;;;35.55;23.25;;;;;;;4.83;67.67;100494.25;1772641;80;21016;-36
2021/10/31 05:28:43;;;;;;;35.15;23.15;;;;;;;4.88;67.69;100486.11;1769758;81;21874;-36
2021/10/31 05:31:10;;;;;;;33.50;22.40;;;;;;;4.97;67.61;100489.72;1759340;80;20942;-36
2021/10/31 05:33:37;;;;;;;33.78;22.98;;;;;;;5.02;67.62;100489.64;1783739;80;21008;-36
2021/10/31 05:36:04;;;;;;;36.85;23.70;;;;;;;5.04;67.69;100491.47;1785331;80;21037;-36
2021/10/31 05:38:31;;;;;;;33.63;23.25;;;;;;;5.07;67.74;100494.92;1787627;80;21008;-36
2021/10/31 05:40:58;;;;;;;38.05;24.95;;;;;;;5.08;67.79;100488.47;1773014;80;21075;-36
2021/10/31 05:43:24;;;;;;;32.70;23.60;;;;;;;5.10;67.75;100490.30;1769793;81;22044;-36
2021/10/31 05:45:51;;;;;;;30.55;22.35;;;;;;;5.09;67.87;100490.03;1769377;80;21001;-36
2021/10/31 05:48:18;;;;;;;31.50;21.95;;;;;;;5.07;67.97;100489.55;1750299;80;21015;-36
2021/10/31 05:50:44;;;;;;;37.85;21.93;;;;;;;5.09;67.98;100487.34;1779150;80;21101;-36
2021/10/31 05:53:11;;;;;;;32.17;20.70;;;;;;;5.17;67.96;100484.00;1767838;80;21553;-36
2021/10/31 05:55:37;;;;;;;30.32;21.60;;;;;;;5.19;68.02;100485.28;1763587;81;20922;-36
2021/10/31 05:58:04;;;;;;;32.03;21.73;;;;;;;5.21;68.22;100487.69;1759141;80;20977;-36
2021/10/31 06:00:31;;;;;;;32.00;22.62;;;;;;;5.22;68.32;100487.95;1768180;80;21013;-36
2021/10/31 06:02:57;;;;;;;32.17;24.05;;;;;;;5.24;68.31;100493.81;1751761;80;21045;-36
2021/10/31 06:05:24;;;;;;;32.23;22.87;;;;;;;5.23;68.48;100493.00;1773853;80;21138;-36
2021/10/31 06:07:52;;;;;;;32.58;21.30;;;;;;;5.22;68.60;100490.63;1751561;80;21136;-36
2021/10/31 06:10:20;;;;;;;27.93;20.57;;;;;;;5.28;68.69;100492.11;1743221;82;21555;-36
2021/10/31 06:12:47;;;;;;;28.40;20.57;;;;;;;5.37;68.73;100498.97;1743009;82;21045;-36
2021/10/31 06:15:18;;;;;;;30.70;22.30;;;;;;;5.44;68.81;100498.82;1744488;80;21523;-36
2021/10/31 06:17:46;;;;;;;32.95;21.95;;;;;;;5.50;68.87;100505.70;1773718;80;21888;-36
2021/10/31 06:20:15;;;;;;;34.30;23.02;;;;;;;5.54;68.94;100502.67;1744204;80;20953;-36
2021/10/31 06:22:42;;;;;;;30.35;21.70;;;;;;;5.60;69.01;100508.20;1673631;85;21049;-36
2021/10/31 06:25:11;;;;;;;31.20;21.68;;;;;;;5.65;69.05;100501.39;1743187;80;21063;-36
2021/10/31 06:27:39;;;;;;;32.90;21.00;;;;;;;5.69;69.06;100508.30;1755033;80;21053;-37
2021/10/31 06:30:08;;;;;;;29.32;19.80;;;;;;;5.78;69.13;100503.81;1743292;82;21554;-36
2021/10/31 06:32:35;;;;;;;27.05;19.57;;;;;;;5.92;69.06;100507.87;1743753;80;21493;-36
2021/10/31 06:35:01;;;;;;;29.82;20.45;;;;;;;5.97;69.10;100507.77;1744100;80;21028;-36
2021/10/31 06:37:28;;;;;;;28.80;20.12;;;;;;;6.01;69.17;100513.59;1743454;82;21006;-36
2021/10/31 06:39:56;;;;;;;29.70;20.17;;;;;;;6.06;69.23;100513.49;1743446;82;21480;-36
2021/10/31 06:42:26;;;;;;;31.68;21.85;;;;;;;6.12;69.18;100515.53;1743475;82;21825;-36
2021/10/31 06:44:51;;;;;;;29.32;19.37;;;;;;;6.17;69.18;100520.02;1743154;82;21531;-37
2021/10/31 06:47:17;;;;;;;27.70;19.48;;;;;;;6.26;69.22;100518.20;1743476;82;20989;-36
2021/10/31 06:49:46;;;;;;;26.85;18.82;;;;;;;6.38;69.11;100513.10;1744287;80;21045;-37
2021/10/31 06:52:12;;;;;;;28.25;21.73;;;;;;;6.50;69.11;100517.39;1743567;82;21514;-36
2021/10/31 06:54:40;;;;;;;29.40;21.80;;;;;;;6.57;69.10;100516.44;1743219;82;21484;-36
2021/10/31 06:57:06;;;;;;;34.13;23.75;;;;;;;6.62;68.92;100516.88;1743174;82;21008;-36
2021/10/31 06:59:33;;;;;;;30.97;22.50;;;;;;;6.68;68.76;100519.70;1752479;80;21518;-36
2021/10/31 07:02:00;;;;;;;29.87;21.73;;;;;;;6.72;68.60;100516.64;1751913;80;21037;-36
2021/10/31 07:04:29;;;;;;;30.85;21.02;;;;;;;6.76;68.47;100521.11;1742355;80;21088;-36
2021/10/31 07:06:56;;;;;;;31.70;21.20;;;;;;;6.85;68.38;100517.92;1743902;80;21118;-36
2021/10/31 07:09:23;;;;;;;24.85;19.30;;;;;;;6.97;68.21;100513.34;1743115;80;21016;-36
2021/10/31 07:11:50;;;;;;;29.07;20.37;;;;;;;7.09;68.19;100516.27;1743128;82;20934;-36
2021/10/31 07:14:17;;;;;;;27.45;19.92;;;;;;;7.20;68.14;100515.46;1743267;82;21077;-36
2021/10/31 07:16:45;;;;;;;27.75;20.40;;;;;;;7.33;67.89;100516.72;1761951;80;20969;-36
2021/10/31 07:19:12;;;;;;;28.75;19.70;;;;;;;7.46;67.50;100522.33;1746888;80;21134;-36
2021/10/31 07:21:38;;;;;;;26.10;19.62;;;;;;;7.58;67.24;100523.36;1749559;80;21802;-36
2021/10/31 07:24:06;;;;;;;27.05;20.40;;;;;;;7.71;66.90;100523.80;1749753;80;20958;-36
2021/10/31 07:26:32;;;;;;;29.57;19.67;;;;;;;7.85;66.90;100519.64;1743486;82;21455;-37
2021/10/31 07:28:59;;;;;;;23.22;17.40;;;;;;;8.01;66.57;100522.16;1730053;80;21045;-36
2021/10/31 07:31:31;;;;;;;22.15;17.45;;;;;;;8.23;65.79;100526.09;1762938;80;21116;-37
2021/10/31 07:33:58;;;;;;;26.23;17.67;;;;;;;8.47;65.25;100530.31;1707484;84;21002;-36
2021/10/31 07:36:26;;;;;;;21.37;17.30;;;;;;;8.67;64.79;100525.61;1760427;80;20993;-36
2021/10/31 07:38:53;;;;;;;20.97;15.70;;;;;;;8.85;64.38;100525.86;1753498;80;21547;-36
2021/10/31 07:41:20;;;;;;;19.90;15.45;;;;;;;9.04;63.81;100527.67;1744868;80;21476;-36
2021/10/31 07:43:47;;;;;;;20.97;15.65;;;;;;;9.23;62.36;100526.52;1774116;80;21542;-36
2021/10/31 07:46:14;;;;;;;19.92;15.58;;;;;;;9.39;61.79;100524.90;1751357;80;20934;-36
2021/10/31 07:48:41;;;;;;;20.57;15.65;;;;;;;9.53;61.73;100530.34;1743518;82;21033;-36
2021/10/31 07:51:09;;;;;;;21.25;14.38;;;;;;;9.73;61.13;100521.28;1759390;80;20967;-36
2021/10/31 07:53:39;;;;;;;19.25;14.15;;;;;;;9.87;60.66;100530.77;1702308;84;21550;-36
2021/10/31 07:56:04;;;;;;;16.12;12.88;;;;;;;10.04;59.81;100525.81;1769323;80;21523;-37
2021/10/31 07:58:31;;;;;;;18.95;13.88;;;;;;;10.19;58.91;100520.41;1766907;80;20953;-37
2021/10/31 08:00:57;;;;;;;18.30;14.50;;;;;;;10.28;58.10;100524.66;1774151;80;21500;-37
2021/10/31 08:03:24;;;;;;;15.98;12.73;;;;;;;10.34;57.75;100523.35;1760876;80;21096;-36
2021/10/31 08:05:50;;;;;;;17.67;13.60;;;;;;;10.42;58.13;100518.98;1744935;80;21043;-37
2021/10/31 08:08:17;;;;;;;18.95;14.45;;;;;;;10.57;57.74;100516.24;1745378;80;21843;-37
2021/10/31 08:10:46;;;;;;;16.50;13.03;;;;;;;10.73;57.53;100515.88;1744827;82;21035;-37
2021/10/31 08:13:22;;;;;;;20.30;13.60;;;;;;;10.88;56.81;100522.05;1743931;80;21350;-37
2021/10/31 08:15:50;;;;;;;18.77;13.55;;;;;;;10.99;55.58;100521.09;1743612;82;21032;-37
2021/10/31 08:18:17;;;;;;;18.40;13.85;;;;;;;11.07;55.92;100520.20;1743508;81;21033;-37
2021/10/31 08:20:45;;;;;;;18.92;13.70;;;;;;;11.17;55.75;100515.72;1742529;80;20994;-37
2021/10/31 08:23:14;;;;;;;16.12;12.98;;;;;;;11.33;55.44;100522.07;1756137;80;21025;-37
2021/10/31 08:25:45;;;;;;;18.50;13.43;;;;;;;11.47;54.75;100522.59;1743084;82;21543;-37
2021/10/31 08:28:13;;;;;;;18.35;13.10;;;;;;;11.52;53.97;100518.27;1761229;80;20953;-37
2021/10/31 08:30:55;;;;;;;19.00;13.15;;;;;;;11.54;53.66;100521.45;1743377;82;21534;-37
2021/10/31 08:33:23;;;;;;;17.15;13.08;;;;;;;11.66;54.02;100518.77;1754504;80;21142;-37
2021/10/31 08:35:48;;;;;;;15.53;11.30;;;;;;;11.76;53.96;100513.48;1740752;80;21373;-37
2021/10/31 08:38:17;;;;;;;15.78;11.83;;;;;;;11.93;53.34;100518.67;1744573;80;21096;-37
2021/10/31 08:40:44;;;;;;;15.05;11.00;;;;;;;12.11;53.06;100513.79;1752446;80;20930;-37
2021/10/31 08:43:10;;;;;;;15.05;11.35;;;;;;;12.27;52.97;100509.81;1755103;80;21010;-37
2021/10/31 08:45:39;;;;;;;16.55;11.78;;;;;;;12.42;52.03;100509.91;1774053;80;21771;-37
2021/10/31 08:48:06;;;;;;;14.15;10.93;;;;;;;12.53;51.60;100511.02;1769799;80;21499;-37
2021/10/31 08:50:34;;;;;;;16.17;11.33;;;;;;;12.62;51.76;100508.16;1770602;80;21006;-37
2021/10/31 08:53:02;;;;;;;16.05;10.82;;;;;;;12.77;50.78;100506.62;1754290;80;21555;-37
2021/10/31 08:55:29;;;;;;;14.78;10.32;;;;;;;12.88;50.72;100497.61;1740317;80;21001;-37
2021/10/31 08:57:57;;;;;;;17.37;10.58;;;;;;;13.04;50.33;100499.02;1742871;81;21139;-37
2021/10/31 09:00:24;;;;;;;15.72;11.35;;;;;;;13.22;50.44;100494.86;1767761;80;21104;-37
2021/10/31 09:02:52;;;;;;;16.80;10.98;;;;;;;13.37;48.93;100486.48;1746900;80;20973;-37
2021/10/31 09:05:19;;;;;;;13.53;10.45;;;;;;;13.41;49.19;100490.88;1746879;80;21093;-37
2021/10/31 09:07:47;;;;;;;15.80;10.75;;;;;;;13.52;49.12;100487.63;1745536;80;20960;-37
2021/10/31 09:10:13;;;;;;;16.17;9.98;;;;;;;13.63;48.70;100489.49;1759050;80;21116;-37
2021/10/31 09:12:40;;;;;;;15.23;10.98;;;;;;;13.70;47.88;100480.11;1773869;80;20988;-37
2021/10/31 09:15:07;;;;;;;13.98;9.78;;;;;;;13.75;48.05;100489.38;1770788;80;21069;-37
2021/10/31 09:17:34;;;;;;;14.20;9.80;;;;;;;13.80;47.68;100478.78;1752705;80;21028;-37
2021/10/31 09:20:04;;;;;;;12.18;9.38;;;;;;;13.86;47.96;100478.17;1707394;83;21021;-37
2021/10/31 09:22:33;;;;;;;13.75;9.75;;;;;;;13.95;47.89;100476.61;1708218;82;20997;-37
2021/10/31 09:24:59;;;;;;;17.45;10.70;;;;;;;14.04;47.70;100471.75;1731785;82;21536;-37
2021/10/31 09:27:26;;;;;;;14.13;10.18;;;;;;;14.23;47.33;100469.66;1729081;82;21475;-37
2021/10/31 09:29:52;;;;;;;13.53;9.75;;;;;;;14.41;46.64;100478.25;1734865;82;20965;-37
2021/10/31 09:32:25;;;;;;;13.88;8.53;;;;;;;14.55;46.54;100478.55;1747753;80;21093;-37
2021/10/31 09:34:54;;;;;;;10.18;8.43;;;;;;;14.65;45.50;100473.88;1708919;82;21122;-37
2021/10/31 09:37:20;;;;;;;9.98;8.15;;;;;;;14.74;45.16;100476.61;1751179;80;20965;-37
2021/10/31 09:39:48;;;;;;;11.12;8.13;;;;;;;14.85;45.72;100471.36;1767804;80;21029;-37
2021/10/31 09:42:16;;;;;;;10.53;7.12;;;;;;;14.98;44.93;100468.67;1771467;80;20972;-37
2021/10/31 09:44:48;;;;;;;10.55;7.85;;;;;;;15.11;44.28;100471.45;1750296;80;20977;-37
2021/10/31 09:47:11;;;;;;;10.38;7.78;;;;;;;15.16;43.43;100464.89;1773143;80;21976;-37
2021/10/31 09:49:38;;;;;;;13.03;7.95;;;;;;;15.14;43.49;100472.67;1773975;80;20990;-37
2021/10/31 09:52:06;;;;;;;9.13;7.87;;;;;;;15.15;43.62;100470.93;1767040;80;21032;-37
2021/10/31 09:54:33;;;;;;;12.55;7.92;;;;;;;15.17;43.26;100460.44;1753525;80;21009;-37
2021/10/31 09:57:00;;;;;;;10.82;7.97;;;;;;;15.18;43.55;100457.93;1758118;80;20994;-37
2021/10/31 09:59:28;;;;;;;10.65;7.75;;;;;;;15.26;43.85;100459.41;1757009;80;21177;-37
2021/10/31 10:02:12;;;;;;;9.58;7.28;;;;;;;15.36;43.15;100449.23;1743652;80;21043;-37
2021/10/31 10:04:33;;;;;;;9.15;7.25;;;;;;;15.44;43.45;100453.09;1741305;80;20944;-37
2021/10/31 10:07:06;;;;;;;10.15;7.10;;;;;;;15.57;42.59;100459.99;1744012;80;21705;-37
2021/10/31 10:10:50;;;;;;;12.20;7.45;;;;;;;15.83;42.37;100446.89;1824684;78;22646;-37
2021/10/31 10:13:26;;;;;;;11.33;7.37;;;;;;;15.86;41.85;100451.65;1797947;79;21191;-38
2021/10/31 10:16:26;;;;;;;9.58;6.97;;;;;;;15.97;41.28;100447.13;1803686;79;21099;-38
2021/10/31 10:18:55;;;;;;;10.78;7.83;;;;;;;15.97;41.86;100440.30;1760662;79;21632;-37
2021/10/31 10:21:28;;;;;;;9.43;7.15;;;;;;;16.02;40.74;100435.08;1792222;79;21484;-38
2021/10/31 10:24:01;;;;;;;12.63;7.42;;;;;;;16.05;41.28;100424.76;1797653;79;21502;-38
2021/10/31 10:26:36;;;;;;;7.78;6.30;;;;;;;16.15;41.72;100433.69;1791124;80;20980;-38
2021/10/31 10:29:19;;;;;;;10.82;6.83;;;;;;;16.35;41.28;100422.03;1790557;79;21130;-38
2021/10/31 10:31:59;;;;;;;8.95;6.78;;;;;;;16.53;40.68;100423.81;1780631;79;21550;-38
2021/10/31 10:34:36;;;;;;;;;;;;;;;16.69;39.93;100418.16;1704172;83;20973;-38
2021/10/31 10:37:09;;;;;;;10.32;6.87;;;;;;;16.82;39.85;100421.42;1736915;82;20174;-38
2021/10/31 10:39:36;;;;;;;10.60;7.28;;;;;;;16.72;39.63;100407.81;1739907;82;21028;-38
2021/10/31 10:42:06;;;;;;;10.65;7.80;;;;;;;16.74;39.62;100400.61;1747555;82;21528;-38
2021/10/31 10:44:38;;;;;;;8.80;6.78;;;;;;;16.75;39.57;100404.92;1746381;82;21016;-38
2021/10/31 10:47:22;;;;;;;8.30;7.03;;;;;;;16.70;39.34;100401.92;1719677;83;21052;-38
2021/10/31 10:49:51;;;;;;;11.20;7.00;;;;;;;16.72;39.61;100391.97;1752160;81;21031;-38
2021/10/31 10:52:26;;;;;;;9.05;6.67;;;;;;;16.85;39.89;100389.95;1751382;81;21045;-38
2021/10/31 10:55:00;;;;;;;10.63;8.13;;;;;;;17.06;39.42;100389.95;1747030;81;21087;-38
2021/10/31 10:57:34;;;;;;;10.10;8.38;;;;;;;17.25;38.66;100386.41;1745644;82;21536;-38
2021/10/31 11:00:13;;;;;;;11.73;6.97;;;;;;;17.33;38.85;100378.44;1736476;80;21526;-38
2021/10/31 11:02:40;;;;;;;11.40;8.15;;;;;;;17.52;38.44;100383.48;1759642;80;21684;-38
2021/10/31 11:05:10;;;;;;;11.10;8.30;;;;;;;17.54;37.84;100370.95;1760588;80;21064;-38
2021/10/31 11:07:40;;;;;;;;;;;;;;;17.46;37.89;100389.11;1742523;80;21127;-38
2021/10/31 11:10:13;;;;;;;12.30;8.55;;;;;;;17.37;38.15;100370.26;1689033;82;20203;-38
2021/10/31 11:12:41;;;;;;;11.00;8.40;;;;;;;17.27;38.75;100383.30;1743017;81;21536;-38
2021/10/31 11:15:18;;;;;;;9.90;8.23;;;;;;;17.38;38.51;100374.55;1743330;82;21056;-38
2021/10/31 11:17:48;;;;;;;9.27;7.83;;;;;;;17.57;38.57;100369.42;1743465;82;21515;-38
2021/10/31 11:20:20;;;;;;;11.03;7.95;;;;;;;17.77;38.09;100372.09;1744072;81;21551;-38
2021/10/31 11:22:49;;;;;;;9.93;8.18;;;;;;;17.90;38.02;100368.47;1745084;82;21020;-38
2021/10/31 11:25:19;;;;;;;9.78;7.42;;;;;;;18.05;37.74;100367.38;1742685;82;21072;-38
2021/10/31 11:27:47;;;;;;;11.45;8.45;;;;;;;18.21;37.46;100366.44;1745290;82;20999;-38
2021/10/31 11:30:17;;;;;;;11.00;7.72;;;;;;;18.35;36.67;100363.75;1742362;81;21024;-38